Time;durP1;ratioP1;P1;durP2;ratioP2;P2;SDS_P1;SDS_P2;PMS_P1;PMS_P2;Temp;Humidity;BMP_temperature;BMP_pressure;BME280_temperature;BME280_humidity;BME280_pressure;Samples;Min_cycle;Max_cycle;Signal;HPM_P1;HPM_P2
2023/09/26 00:00:05;;;;;;;12.17;5.90;;;13.10;84.10;;;;;;5011715;28;20472;-75
2023/09/26 00:02:31;;;;;;;8.33;6.20;;;13.20;84.30;;;;;;5012106;28;20424;-75
2023/09/26 00:04:58;;;;;;;8.80;5.90;;;13.20;84.40;;;;;;5004664;28;20444;-74
2023/09/26 00:07:23;;;;;;;9.50;6.60;;;13.30;84.40;;;;;;5011815;28;20677;-75
2023/09/26 00:09:49;;;;;;;9.53;6.07;;;13.30;84.60;;;;;;5006888;28;20457;-75
2023/09/26 00:12:14;;;;;;;8.67;6.00;;;13.20;84.40;;;;;;5011484;28;20215;-75
2023/09/26 00:14:40;;;;;;;8.30;6.10;;;13.30;84.60;;;;;;5010500;28;20178;-74
2023/09/26 00:17:06;;;;;;;13.20;6.10;;;13.30;84.60;;;;;;5010105;28;20224;-74
2023/09/26 00:19:32;;;;;;;9.50;5.93;;;13.40;83.80;;;;;;5014875;28;20229;-75
2023/09/26 00:21:57;;;;;;;9.40;5.57;;;13.30;83.30;;;;;;5016920;28;20185;-76
2023/09/26 00:24:24;;;;;;;12.17;5.80;;;13.20;83.40;;;;;;5013377;28;20170;-76
2023/09/26 00:26:49;;;;;;;9.20;6.07;;;13.00;83.60;;;;;;5012121;28;20205;-75
2023/09/26 00:29:15;;;;;;;10.10;6.83;;;12.90;83.80;;;;;;5014829;28;20937;-74
2023/09/26 00:31:40;;;;;;;10.60;6.80;;;12.80;84.00;;;;;;5008095;28;20197;-75
2023/09/26 00:34:06;;;;;;;9.30;6.30;;;12.90;84.60;;;;;;5010908;28;20424;-74
2023/09/26 00:36:32;;;;;;;8.30;6.70;;;12.80;84.40;;;;;;5008789;28;20213;-75
2023/09/26 00:38:57;;;;;;;9.40;6.80;;;12.70;84.60;;;;;;5007469;28;20293;-74
2023/09/26 00:41:23;;;;;;;12.10;7.13;;;12.70;84.90;;;;;;5003803;28;20194;-75
2023/09/26 00:43:48;;;;;;;13.83;7.00;;;12.80;85.20;;;;;;5008593;28;20192;-73
2023/09/26 00:46:15;;;;;;;11.07;6.77;;;12.70;85.20;;;;;;5008651;28;20214;-75
2023/09/26 00:48:42;;;;;;;9.90;7.20;;;12.70;85.30;;;;;;5010925;28;20178;-74
2023/09/26 00:51:08;;;;;;;9.63;6.70;;;12.90;85.20;;;;;;5013664;28;20421;-74
2023/09/26 00:53:38;;;;;;;10.80;7.60;;;12.90;84.70;;;;;;5008437;28;20417;-74
2023/09/26 00:56:03;;;;;;;10.30;6.77;;;12.90;84.70;;;;;;5008430;28;20457;-75
2023/09/26 00:58:31;;;;;;;11.93;6.63;;;12.80;85.00;;;;;;5009118;28;20791;-75
2023/09/26 01:00:58;;;;;;;7.70;5.97;;;12.90;85.00;;;;;;5009085;28;20807;-73
2023/09/26 01:03:24;;;;;;;8.30;6.10;;;13.00;85.00;;;;;;5006785;28;20507;-75
2023/09/26 01:05:50;;;;;;;9.10;6.60;;;13.00;84.90;;;;;;5004313;28;20543;-75
2023/09/26 01:08:16;;;;;;;12.30;7.17;;;13.00;84.90;;;;;;5006100;28;20423;-75
2023/09/26 01:10:44;;;;;;;9.63;6.43;;;13.00;85.00;;;;;;5005704;28;20409;-75
2023/09/26 01:13:10;;;;;;;9.47;5.63;;;13.00;84.90;;;;;;5005558;28;20445;-75
2023/09/26 01:15:38;;;;;;;12.13;7.30;;;12.90;85.00;;;;;;4992879;28;20468;-75
2023/09/26 01:18:09;;;;;;;8.80;6.50;;;13.00;85.20;;;;;;5003591;28;20441;-75
2023/09/26 01:20:38;;;;;;;9.63;6.90;;;12.90;85.20;;;;;;5007276;28;20468;-74
2023/09/26 01:23:06;;;;;;;10.93;7.40;;;13.00;85.50;;;;;;5008388;28;20941;-74
2023/09/26 01:25:35;;;;;;;9.47;6.47;;;12.90;84.90;;;;;;5006065;28;21337;-75
2023/09/26 01:28:07;;;;;;;10.53;5.80;;;12.90;85.20;;;;;;5007188;28;20435;-74
2023/09/26 01:30:37;;;;;;;13.37;7.47;;;12.90;84.90;;;;;;5007845;28;20465;-75
2023/09/26 01:33:04;;;;;;;11.80;6.90;;;12.80;85.00;;;;;;5006671;28;20459;-73
2023/09/26 01:35:30;;;;;;;9.40;6.90;;;12.60;85.20;;;;;;5003824;28;20512;-74
2023/09/26 01:37:56;;;;;;;10.03;6.90;;;12.60;85.60;;;;;;5009862;28;20452;-73
2023/09/26 01:40:22;;;;;;;12.10;7.47;;;12.60;85.90;;;;;;5003956;28;21008;-75
2023/09/26 01:42:48;;;;;;;10.87;7.30;;;12.70;86.20;;;;;;4996454;28;20205;-75
2023/09/26 01:45:14;;;;;;;9.97;6.50;;;12.70;85.90;;;;;;5006953;28;20511;-75
2023/09/26 01:47:48;;;;;;;11.57;7.37;;;12.60;86.00;;;;;;5009908;28;20351;-75
2023/09/26 01:50:14;;;;;;;12.67;7.50;;;12.60;86.00;;;;;;4997895;28;20193;-74
2023/09/26 01:52:40;;;;;;;10.53;7.13;;;12.60;86.20;;;;;;5010858;28;20491;-74
2023/09/26 01:55:08;;;;;;;10.17;6.80;;;12.70;85.90;;;;;;5005358;28;20453;-75
2023/09/26 01:57:34;;;;;;;8.83;5.77;;;12.70;85.00;;;;;;5010604;28;20185;-75
2023/09/26 02:00:13;;;;;;;11.10;6.97;;;12.70;84.40;;;;;;5008818;28;20480;-75
2023/09/26 02:02:42;;;;;;;12.03;7.60;;;12.70;84.60;;;;;;5017951;28;21096;-75
2023/09/26 02:05:10;;;;;;;11.73;7.20;;;12.60;85.00;;;;;;5003924;28;20476;-76
2023/09/26 02:07:35;;;;;;;11.00;7.00;;;12.50;85.20;;;;;;5011311;28;20460;-74
2023/09/26 02:10:03;;;;;;;10.57;6.77;;;12.40;85.60;;;;;;5005552;28;20451;-76
2023/09/26 02:12:30;;;;;;;9.30;6.80;;;12.50;86.00;;;;;;4998690;28;21098;-74
2023/09/26 02:14:56;;;;;;;9.80;6.40;;;12.50;86.20;;;;;;5006024;28;20952;-75
2023/09/26 02:17:21;;;;;;;12.93;7.43;;;12.50;86.20;;;;;;5008048;28;20422;-75
2023/09/26 02:19:47;;;;;;;10.80;7.30;;;12.50;86.20;;;;;;5008168;28;20664;-75
2023/09/26 02:22:13;;;;;;;12.80;8.13;;;12.50;86.00;;;;;;5008453;28;20198;-73
2023/09/26 02:24:38;;;;;;;10.53;7.20;;;12.40;86.00;;;;;;5012120;28;20283;-74
2023/09/26 02:27:04;;;;;;;11.70;7.63;;;12.50;86.00;;;;;;5009356;28;20558;-74
2023/09/26 02:29:30;;;;;;;11.97;7.23;;;12.60;85.60;;;;;;5001831;28;20202;-73
2023/09/26 02:31:55;;;;;;;9.47;7.40;;;12.50;85.30;;;;;;5006646;28;20204;-72
2023/09/26 02:34:22;;;;;;;13.37;7.63;;;12.50;85.60;;;;;;5008506;28;20205;-74
2023/09/26 02:36:48;;;;;;;10.77;6.90;;;12.40;85.90;;;;;;5010566;28;20686;-74
2023/09/26 02:39:14;;;;;;;14.97;8.10;;;12.40;86.00;;;;;;5008616;28;20977;-74
2023/09/26 02:41:39;;;;;;;12.53;8.20;;;12.40;86.30;;;;;;5008183;28;20433;-73
2023/09/26 02:44:06;;;;;;;13.03;8.43;;;12.50;86.50;;;;;;5010675;28;20193;-74
2023/09/26 02:46:32;;;;;;;10.50;7.00;;;12.60;86.20;;;;;;5010837;28;20241;-75
2023/09/26 02:49:00;;;;;;;14.93;7.10;;;12.60;85.90;;;;;;5014181;28;20897;-75
2023/09/26 02:51:28;;;;;;;9.10;6.13;;;12.60;85.90;;;;;;5012301;28;20444;-76
2023/09/26 02:53:54;;;;;;;9.00;6.33;;;12.60;86.00;;;;;;5013893;28;20929;-74
2023/09/26 02:56:20;;;;;;;10.50;6.53;;;12.60;86.00;;;;;;5006073;28;20482;-75
2023/09/26 02:58:45;;;;;;;10.47;6.33;;;12.60;86.00;;;;;;5010266;28;20204;-75
2023/09/26 03:01:15;;;;;;;8.13;5.90;;;12.60;86.00;;;;;;5013525;28;20594;-74
2023/09/26 03:03:41;;;;;;;8.23;5.90;;;12.60;86.00;;;;;;5010173;28;20182;-74
2023/09/26 03:06:07;;;;;;;12.50;6.80;;;12.70;85.90;;;;;;5008937;28;20516;-75
2023/09/26 03:08:33;;;;;;;10.00;6.60;;;12.60;85.20;;;;;;5012389;28;20217;-73
2023/09/26 03:10:59;;;;;;;10.63;6.53;;;12.50;84.10;;;;;;5005634;28;20202;-72
2023/09/26 03:13:25;;;;;;;9.27;6.73;;;12.50;83.60;;;;;;5010314;28;20429;-74
2023/09/26 03:15:56;;;;;;;10.67;6.87;;;12.30;83.80;;;;;;5008915;28;20883;-75
2023/09/26 03:18:22;;;;;;;9.87;6.30;;;12.30;84.00;;;;;;5006062;28;20188;-75
2023/09/26 03:20:48;;;;;;;9.70;6.60;;;12.10;84.60;;;;;;5010608;28;20433;-74
2023/09/26 03:23:14;;;;;;;12.20;7.20;;;12.10;84.90;;;;;;5010945;28;20768;-74
2023/09/26 03:25:39;;;;;;;13.80;7.57;;;12.20;85.20;;;;;;5006332;28;20549;-75
2023/09/26 03:28:05;;;;;;;8.60;6.37;;;12.10;85.20;;;;;;5011592;28;20190;-74
2023/09/26 03:30:31;;;;;;;12.50;7.33;;;12.00;85.20;;;;;;5004798;28;21021;-74
2023/09/26 03:32:56;;;;;;;13.23;8.00;;;12.10;85.70;;;;;;5009391;28;20669;-74
2023/09/26 03:35:22;;;;;;;12.83;7.50;;;12.20;85.70;;;;;;5004221;28;20225;-75
2023/09/26 03:37:47;;;;;;;15.47;7.97;;;12.20;85.60;;;;;;5013609;28;20178;-75
2023/09/26 03:40:13;;;;;;;16.80;8.90;;;12.10;85.60;;;;;;5016546;28;20205;-75
2023/09/26 03:42:39;;;;;;;12.47;8.40;;;12.00;85.70;;;;;;5004836;28;20186;-73
2023/09/26 03:45:06;;;;;;;11.67;7.33;;;12.10;86.20;;;;;;5014700;28;20210;-75
2023/09/26 03:47:32;;;;;;;11.47;7.13;;;12.10;86.20;;;;;;5018704;28;20178;-75
2023/09/26 03:49:58;;;;;;;12.03;7.53;;;12.10;86.30;;;;;;5018448;28;20975;-75
2023/09/26 03:52:23;;;;;;;11.00;7.40;;;12.10;86.50;;;;;;5022233;28;20197;-74
2023/09/26 03:54:49;;;;;;;9.13;6.97;;;12.10;86.50;;;;;;5020245;28;20733;-74
2023/09/26 03:57:15;;;;;;;12.97;7.50;;;12.00;86.60;;;;;;5017904;28;20257;-74
2023/09/26 03:59:41;;;;;;;12.93;7.60;;;12.10;86.20;;;;;;5012822;28;20469;-73
2023/09/26 04:02:07;;;;;;;9.20;6.70;;;11.90;85.70;;;;;;5009412;28;20280;-74
2023/09/26 04:04:34;;;;;;;13.70;6.47;;;12.00;85.70;;;;;;5007787;28;20224;-74
2023/09/26 04:07:00;;;;;;;8.73;6.50;;;11.90;84.60;;;;;;5006623;28;20460;-74
2023/09/26 04:09:25;;;;;;;11.67;7.30;;;11.80;84.30;;;;;;5008414;28;20409;-75
2023/09/26 04:11:51;;;;;;;10.90;7.30;;;11.70;84.90;;;;;;5008497;28;20475;-76
2023/09/26 04:14:17;;;;;;;11.00;6.80;;;11.70;85.50;;;;;;5009826;28;20182;-76
2023/09/26 04:16:42;;;;;;;12.20;7.40;;;11.60;85.70;;;;;;5009610;28;20713;-75
2023/09/26 04:19:10;;;;;;;12.23;7.87;;;11.70;86.30;;;;;;5007480;28;20218;-76
2023/09/26 04:21:36;;;;;;;12.90;8.33;;;11.70;86.20;;;;;;5009107;28;20182;-76
2023/09/26 04:24:04;;;;;;;17.07;8.90;;;11.60;86.30;;;;;;5010839;28;20482;-76
2023/09/26 04:26:29;;;;;;;15.10;9.13;;;11.60;86.80;;;;;;5009224;28;20268;-76
2023/09/26 04:28:55;;;;;;;18.47;9.60;;;11.80;87.00;;;;;;5011361;28;20416;-75
2023/09/26 04:31:21;;;;;;;17.70;9.80;;;11.80;86.90;;;;;;5007565;28;20186;-76
2023/09/26 04:33:49;;;;;;;15.90;10.93;;;11.80;86.80;;;;;;5010845;28;20178;-75
2023/09/26 04:36:16;;;;;;;20.13;11.70;;;11.70;86.90;;;;;;5009662;28;20217;-76
2023/09/26 04:38:42;;;;;;;18.97;11.50;;;11.60;86.90;;;;;;5012010;28;20468;-76
2023/09/26 04:41:08;;;;;;;18.93;10.50;;;11.60;87.40;;;;;;5012861;28;20773;-74
2023/09/26 04:43:34;;;;;;;15.00;9.47;;;11.70;87.60;;;;;;5018131;28;20425;-74
2023/09/26 04:45:59;;;;;;;18.17;10.33;;;11.70;87.30;;;;;;5012899;28;20237;-74
2023/09/26 04:48:25;;;;;;;17.67;10.97;;;11.70;87.00;;;;;;5008071;28;20433;-75
2023/09/26 04:50:51;;;;;;;18.40;11.57;;;11.70;87.10;;;;;;5007542;28;20216;-73
2023/09/26 04:53:18;;;;;;;22.90;11.83;;;11.60;87.10;;;;;;5009748;28;20476;-75
2023/09/26 04:55:44;;;;;;;22.47;12.03;;;11.60;87.30;;;;;;5006819;28;20704;-74
2023/09/26 04:58:10;;;;;;;22.03;12.67;;;11.60;87.10;;;;;;5011712;28;20425;-75
2023/09/26 05:00:37;;;;;;;21.33;11.73;;;11.50;87.10;;;;;;5010567;28;20602;-73
2023/09/26 05:03:03;;;;;;;21.20;12.60;;;11.50;87.30;;;;;;5008287;28;20216;-75
2023/09/26 05:05:29;;;;;;;21.43;12.40;;;11.50;87.30;;;;;;5008253;28;21287;-75
2023/09/26 05:07:55;;;;;;;26.43;13.43;;;11.50;87.30;;;;;;5009121;28;20290;-74
2023/09/26 05:10:21;;;;;;;24.40;13.03;;;11.50;87.60;;;;;;5009068;28;20197;-74
2023/09/26 05:12:46;;;;;;;18.23;11.70;;;11.40;87.60;;;;;;5002737;28;20429;-75
2023/09/26 05:15:16;;;;;;;24.23;12.57;;;11.40;87.70;;;;;;5007182;28;20512;-74
2023/09/26 05:17:54;;;;;;;22.73;13.53;;;11.40;87.80;;;;;;5003639;28;20662;-74
2023/09/26 05:20:20;;;;;;;21.20;12.53;;;11.40;87.70;;;;;;5007858;28;20479;-73
2023/09/26 05:22:48;;;;;;;23.07;12.80;;;11.40;87.80;;;;;;5010866;28;20424;-74
2023/09/26 05:25:14;;;;;;;24.47;12.17;;;11.50;87.80;;;;;;5011000;28;20210;-74
2023/09/26 05:27:44;;;;;;;21.03;11.80;;;11.50;87.60;;;;;;5017372;28;20761;-74
2023/09/26 05:30:11;;;;;;;29.03;12.87;;;11.50;87.40;;;;;;5008738;28;20459;-73
2023/09/26 05:32:37;;;;;;;22.60;11.90;;;11.40;87.40;;;;;;4997996;28;20420;-73
2023/09/26 05:35:06;;;;;;;21.80;12.67;;;11.30;87.40;;;;;;5013287;28;20532;-74
2023/09/26 05:37:32;;;;;;;27.97;14.50;;;11.30;87.60;;;;;;5011219;28;20492;-73
2023/09/26 05:39:57;;;;;;;19.60;12.20;;;11.30;87.70;;;;;;5014408;28;20496;-73
2023/09/26 05:42:23;;;;;;;19.90;12.20;;;11.30;87.70;;;;;;5010643;28;20437;-73
2023/09/26 05:44:49;;;;;;;28.20;13.50;;;11.30;87.60;;;;;;5008412;28;20607;-72
2023/09/26 05:47:14;;;;;;;18.07;11.03;;;11.30;87.40;;;;;;4992626;28;20205;-73
2023/09/26 05:49:40;;;;;;;21.07;10.93;;;11.30;87.30;;;;;;5016093;28;20189;-73
2023/09/26 05:52:05;;;;;;;16.30;11.23;;;11.30;87.30;;;;;;5008380;28;20197;-73
2023/09/26 05:54:31;;;;;;;21.40;12.13;;;11.30;87.10;;;;;;5008654;28;20296;-72
2023/09/26 05:56:57;;;;;;;21.90;11.30;;;11.20;86.90;;;;;;5004538;28;20632;-73
2023/09/26 05:59:23;;;;;;;19.63;11.10;;;11.20;86.90;;;;;;5013404;28;20268;-73
2023/09/26 06:01:48;;;;;;;18.43;10.70;;;11.20;86.90;;;;;;5014897;28;20428;-73
2023/09/26 06:04:15;;;;;;;19.20;11.93;;;11.10;86.90;;;;;;5012500;28;20235;-74
2023/09/26 06:06:40;;;;;;;19.20;12.00;;;11.30;87.30;;;;;;5010460;28;20619;-74
2023/09/26 06:09:06;;;;;;;19.00;11.37;;;11.30;87.10;;;;;;5017988;28;20437;-73
2023/09/26 06:11:31;;;;;;;18.93;11.80;;;11.40;87.30;;;;;;5013378;28;20194;-72
2023/09/26 06:13:57;;;;;;;19.87;11.03;;;11.60;87.10;;;;;;5013250;28;20247;-73
2023/09/26 06:16:22;;;;;;;20.73;11.90;;;11.70;87.00;;;;;;5011136;28;20256;-73
2023/09/26 06:18:48;;;;;;;20.30;11.50;;;11.70;86.90;;;;;;5013136;28;20205;-73
2023/09/26 06:21:14;;;;;;;22.60;11.80;;;11.80;87.00;;;;;;5001048;28;20225;-74
2023/09/26 06:23:43;;;;;;;24.90;12.17;;;11.90;86.90;;;;;;5012393;28;20984;-73
2023/09/26 06:26:09;;;;;;;20.20;11.53;;;11.90;86.80;;;;;;5009238;28;20464;-74
2023/09/26 06:28:34;;;;;;;18.37;10.40;;;12.00;86.50;;;;;;5013191;28;20785;-73
2023/09/26 06:31:05;;;;;;;19.90;12.10;;;12.00;86.00;;;;;;5013449;28;20224;-74
2023/09/26 06:33:31;;;;;;;20.43;11.30;;;12.00;85.30;;;;;;5013704;28;20557;-73
2023/09/26 06:35:56;;;;;;;19.27;11.33;;;12.00;85.20;;;;;;5011350;28;20453;-74
2023/09/26 06:38:22;;;;;;;18.63;11.63;;;12.00;85.20;;;;;;5011891;28;20178;-72
2023/09/26 06:40:47;;;;;;;18.57;12.10;;;12.00;85.20;;;;;;5012293;28;20214;-73
2023/09/26 06:43:13;;;;;;;17.93;11.20;;;12.00;85.30;;;;;;5010834;28;20194;-73
2023/09/26 06:45:39;;;;;;;24.50;13.60;;;12.00;85.30;;;;;;5011385;28;20217;-74
2023/09/26 06:48:06;;;;;;;16.93;11.10;;;12.10;85.30;;;;;;5014710;28;20197;-74
2023/09/26 06:50:32;;;;;;;25.90;12.30;;;12.10;85.30;;;;;;5016248;28;20725;-73
2023/09/26 06:52:57;;;;;;;20.67;12.10;;;12.10;85.30;;;;;;5016663;28;20439;-72
2023/09/26 06:55:23;;;;;;;17.87;11.67;;;12.10;85.20;;;;;;5009139;28;20468;-74
2023/09/26 06:57:49;;;;;;;20.57;11.67;;;12.20;85.50;;;;;;5003682;28;20189;-73
2023/09/26 07:00:16;;;;;;;18.47;11.27;;;12.20;85.50;;;;;;5013488;28;20308;-74
2023/09/26 07:02:43;;;;;;;18.60;11.50;;;12.30;85.30;;;;;;5012618;28;20726;-73
2023/09/26 07:05:09;;;;;;;24.63;11.70;;;12.40;85.20;;;;;;5006735;28;20483;-73
2023/09/26 07:07:35;;;;;;;19.27;12.30;;;12.50;84.90;;;;;;5016083;28;20466;-75
2023/09/26 07:10:02;;;;;;;16.43;10.33;;;12.60;84.60;;;;;;5015658;28;20416;-73
2023/09/26 07:12:27;;;;;;;19.10;11.47;;;12.70;84.40;;;;;;5020413;28;20804;-74
2023/09/26 07:14:53;;;;;;;19.47;12.30;;;12.70;84.10;;;;;;5011970;28;20987;-75
2023/09/26 07:17:19;;;;;;;21.50;11.33;;;12.80;84.10;;;;;;5010598;28;20761;-73
2023/09/26 07:19:44;;;;;;;19.50;10.60;;;12.80;84.10;;;;;;5014625;28;20648;-74
2023/09/26 07:22:10;;;;;;;19.03;10.40;;;12.90;83.80;;;;;;5011128;28;20201;-73
2023/09/26 07:24:36;;;;;;;21.03;10.73;;;13.00;83.70;;;;;;5011300;28;20433;-73
2023/09/26 07:27:02;;;;;;;17.10;11.37;;;13.00;83.60;;;;;;5001735;28;20596;-74
2023/09/26 07:29:27;;;;;;;17.90;10.60;;;13.00;83.40;;;;;;5013913;28;20184;-75
2023/09/26 07:31:54;;;;;;;17.40;10.53;;;13.00;83.40;;;;;;5011667;28;20650;-74
2023/09/26 07:34:20;;;;;;;16.73;10.27;;;13.10;83.60;;;;;;5012237;28;20618;-75
2023/09/26 07:36:46;;;;;;;18.20;11.17;;;13.20;83.40;;;;;;5007743;28;20573;-73
2023/09/26 07:39:14;;;;;;;17.07;9.90;;;13.30;83.30;;;;;;5008508;28;20559;-74
2023/09/26 07:41:40;;;;;;;19.17;10.40;;;13.40;83.00;;;;;;5007744;28;20182;-74
2023/09/26 07:44:06;;;;;;;18.73;10.80;;;13.50;82.70;;;;;;5008585;28;20486;-74
2023/09/26 07:46:31;;;;;;;15.87;10.77;;;13.50;82.70;;;;;;5008246;28;20216;-73
2023/09/26 07:48:57;;;;;;;17.00;11.70;;;13.60;82.50;;;;;;5009529;28;20190;-73
2023/09/26 07:51:22;;;;;;;22.37;11.17;;;13.70;82.40;;;;;;5007767;28;20794;-73
2023/09/26 07:53:48;;;;;;;17.60;11.03;;;13.70;82.20;;;;;;5009369;28;20190;-74
2023/09/26 07:56:14;;;;;;;20.73;10.67;;;13.80;82.40;;;;;;5006713;28;20228;-73
2023/09/26 07:58:39;;;;;;;15.83;10.37;;;13.90;81.90;;;;;;5010581;28;20268;-74
2023/09/26 08:01:09;;;;;;;17.33;10.33;;;13.90;82.20;;;;;;5010664;28;20248;-74
2023/09/26 08:03:37;;;;;;;17.17;9.40;;;14.10;81.80;;;;;;5011174;28;20654;-74
2023/09/26 08:06:04;;;;;;;17.23;9.17;;;14.10;81.50;;;;;;4997778;28;20559;-74
2023/09/26 08:08:31;;;;;;;15.93;10.53;;;14.20;81.40;;;;;;5009323;28;20413;-73
2023/09/26 08:11:07;;;;;;;15.33;9.40;;;14.40;81.10;;;;;;5007494;28;20845;-73
2023/09/26 08:13:34;;;;;;;14.93;9.73;;;14.50;80.50;;;;;;5004361;28;21219;-73
2023/09/26 08:15:59;;;;;;;14.50;9.13;;;14.60;80.20;;;;;;5005091;28;20456;-74
2023/09/26 08:18:25;;;;;;;12.97;9.00;;;14.80;79.70;;;;;;5011346;28;20430;-74
2023/09/26 08:20:57;;;;;;;13.60;8.30;;;14.80;79.50;;;;;;5007000;28;20276;-73
2023/09/26 08:23:23;;;;;;;19.07;9.57;;;14.90;79.00;;;;;;5011430;28;20182;-75
2023/09/26 08:25:57;;;;;;;14.00;9.67;;;15.10;78.60;;;;;;5004934;28;20519;-73
2023/09/26 08:28:23;;;;;;;15.00;9.23;;;15.20;78.30;;;;;;5007250;28;20981;-74
2023/09/26 08:30:48;;;;;;;19.03;8.27;;;15.30;78.10;;;;;;5006093;28;20421;-72
2023/09/26 08:33:14;;;;;;;12.67;8.70;;;15.40;77.70;;;;;;5005339;28;20273;-73
2023/09/26 08:35:40;;;;;;;13.27;7.73;;;15.50;77.70;;;;;;5003734;28;20238;-74
2023/09/26 08:38:05;;;;;;;10.80;7.90;;;15.50;77.70;;;;;;5003033;28;20623;-74
2023/09/26 08:40:31;;;;;;;13.43;8.10;;;15.60;77.40;;;;;;4996167;28;20261;-74
2023/09/26 08:42:57;;;;;;;18.17;9.13;;;15.70;77.00;;;;;;5000256;28;20185;-74
2023/09/26 08:45:25;;;;;;;16.20;8.53;;;15.80;76.70;;;;;;5004579;28;20210;-73
2023/09/26 08:47:54;;;;;;;13.37;8.00;;;15.90;76.20;;;;;;5008176;28;20435;-74
2023/09/26 08:50:21;;;;;;;18.77;9.13;;;16.00;76.20;;;;;;5009889;28;20914;-74
2023/09/26 08:52:47;;;;;;;15.77;8.67;;;16.10;75.80;;;;;;5006118;28;20432;-74
2023/09/26 08:55:12;;;;;;;12.60;8.23;;;16.20;75.80;;;;;;5010690;28;20467;-74
2023/09/26 08:57:40;;;;;;;15.63;8.33;;;16.40;75.40;;;;;;5010761;28;20188;-74
2023/09/26 09:00:08;;;;;;;14.00;8.53;;;16.40;75.10;;;;;;5001924;28;20220;-74
2023/09/26 09:02:34;;;;;;;11.63;7.67;;;16.60;74.60;;;;;;5003252;28;20940;-72
2023/09/26 09:05:00;;;;;;;13.83;8.33;;;16.70;74.30;;;;;;5002795;28;20451;-74
2023/09/26 09:07:26;;;;;;;12.00;8.07;;;16.70;74.20;;;;;;5006498;28;20601;-75
2023/09/26 09:10:05;;;;;;;9.67;7.20;;;16.80;74.00;;;;;;5008763;28;20334;-73
2023/09/26 09:12:31;;;;;;;12.03;7.53;;;17.00;73.60;;;;;;5006350;28;20471;-73
2023/09/26 09:14:56;;;;;;;16.93;8.37;;;17.00;73.30;;;;;;5005750;28;20437;-74
2023/09/26 09:17:22;;;;;;;12.20;8.30;;;17.10;73.00;;;;;;5004791;28;20182;-73
2023/09/26 09:19:50;;;;;;;14.90;8.03;;;17.20;72.90;;;;;;5009303;28;20209;-73
2023/09/26 09:22:20;;;;;;;13.27;8.50;;;17.30;72.30;;;;;;5011761;28;20182;-74
2023/09/26 09:24:56;;;;;;;14.03;7.97;;;17.40;72.30;;;;;;5014605;28;20777;-74
2023/09/26 09:27:31;;;;;;;12.57;8.77;;;17.50;72.10;;;;;;5011193;28;20451;-75
2023/09/26 09:30:19;;;;;;;19.00;8.50;;;17.50;71.80;;;;;;5009458;28;20435;-74
2023/09/26 09:32:44;;;;;;;11.17;7.60;;;17.60;72.10;;;;;;5009077;28;20924;-74
2023/09/26 09:35:13;;;;;;;12.70;7.80;;;17.70;71.60;;;;;;5002203;28;20480;-73
2023/09/26 09:37:50;;;;;;;11.30;7.47;;;17.90;71.40;;;;;;5005560;28;20186;-73
2023/09/26 09:40:20;;;;;;;14.63;7.73;;;18.00;71.30;;;;;;5004696;28;20473;-74
2023/09/26 09:42:50;;;;;;;16.03;7.27;;;18.20;70.50;;;;;;5008988;28;20444;-74
2023/09/26 09:45:19;;;;;;;18.33;8.20;;;18.30;70.50;;;;;;5006800;28;20547;-73
2023/09/26 09:47:46;;;;;;;11.97;7.87;;;18.40;69.70;;;;;;5009327;28;20913;-73
2023/09/26 09:50:13;;;;;;;12.77;7.40;;;18.50;69.50;;;;;;5004499;28;20420;-73
2023/09/26 09:52:44;;;;;;;10.33;6.37;;;18.60;69.40;;;;;;5008691;28;20483;-74
2023/09/26 09:55:19;;;;;;;7.27;6.20;;;18.70;68.90;;;;;;5001733;28;20473;-75
2023/09/26 09:57:49;;;;;;;10.17;5.70;;;18.80;68.60;;;;;;5004141;28;20791;-74
2023/09/26 10:00:15;;;;;;;8.80;6.17;;;18.90;68.60;;;;;;5009559;28;20984;-74
2023/09/26 10:02:41;;;;;;;10.73;7.27;;;19.00;68.00;;;;;;5006496;28;20917;-74
2023/09/26 10:05:12;;;;;;;12.57;7.27;;;19.10;67.70;;;;;;5002880;28;20485;-74
2023/09/26 10:07:40;;;;;;;8.40;6.20;;;19.20;67.60;;;;;;5008440;28;20275;-74
2023/09/26 10:10:09;;;;;;;8.90;6.40;;;19.30;67.50;;;;;;5009307;28;20428;-74
2023/09/26 10:12:39;;;;;;;14.63;6.53;;;19.30;67.60;;;;;;5004093;28;20883;-73
2023/09/26 10:15:13;;;;;;;9.73;5.70;;;19.40;67.60;;;;;;5001128;28;20465;-75
2023/09/26 10:17:40;;;;;;;11.73;6.43;;;19.50;67.00;;;;;;5008310;28;21237;-73
2023/09/26 10:20:10;;;;;;;10.70;6.27;;;19.50;66.60;;;;;;5006020;28;20469;-73
2023/09/26 10:22:41;;;;;;;8.77;6.43;;;19.60;66.40;;;;;;4999018;28;20494;-73
2023/09/26 10:25:08;;;;;;;12.37;5.90;;;19.60;66.40;;;;;;5002437;28;20461;-73
2023/09/26 10:27:34;;;;;;;8.63;5.47;;;19.70;66.40;;;;;;5009940;28;20425;-75
2023/09/26 10:30:03;;;;;;;8.10;6.10;;;19.90;66.10;;;;;;5010946;28;20431;-74
2023/09/26 10:32:37;;;;;;;10.97;5.97;;;20.30;65.60;;;;;;5010473;28;20194;-73
2023/09/26 10:35:23;;;;;;;7.43;5.67;;;20.80;64.20;;;;;;5008409;28;20487;-72
2023/09/26 10:37:53;;;;;;;7.43;5.57;;;21.50;62.60;;;;;;4997164;28;20438;-74
2023/09/26 10:40:19;;;;;;;7.83;5.67;;;22.00;61.50;;;;;;5004887;28;20478;-74
2023/09/26 10:42:49;;;;;;;16.27;5.30;;;22.50;61.70;;;;;;5001263;28;20422;-75
2023/09/26 10:45:15;;;;;;;9.80;5.80;;;23.00;61.50;;;;;;5003946;28;20649;-74
2023/09/26 10:47:41;;;;;;;8.70;5.17;;;23.40;60.40;;;;;;5009673;28;20439;-74
2023/09/26 10:50:09;;;;;;;9.13;5.20;;;23.50;60.00;;;;;;5011277;28;20474;-74
2023/09/26 10:52:35;;;;;;;5.67;4.23;;;23.90;59.90;;;;;;5008553;28;20570;-73
2023/09/26 10:55:02;;;;;;;5.33;4.17;;;24.30;58.80;;;;;;5002747;28;20430;-74
2023/09/26 10:57:28;;;;;;;6.17;4.27;;;24.50;58.70;;;;;;5010771;28;20193;-75
2023/09/26 10:59:54;;;;;;;6.50;4.50;;;24.80;57.60;;;;;;5003004;28;20463;-74
2023/09/26 11:02:22;;;;;;;7.70;4.40;;;25.00;56.90;;;;;;5004992;28;20188;-74
2023/09/26 11:04:47;;;;;;;7.43;5.10;;;24.80;56.90;;;;;;4998722;28;20418;-75
2023/09/26 11:07:14;;;;;;;7.30;3.90;;;24.50;57.40;;;;;;5010460;28;20433;-74
2023/09/26 11:09:42;;;;;;;4.40;4.10;;;24.60;57.30;;;;;;5004809;28;20189;-74
2023/09/26 11:12:08;;;;;;;6.40;4.23;;;24.50;57.30;;;;;;4996838;28;20854;-74
2023/09/26 11:14:34;;;;;;;8.73;4.53;;;24.40;57.60;;;;;;5005927;28;20419;-74
2023/09/26 11:17:00;;;;;;;5.00;4.10;;;24.50;57.20;;;;;;4998921;28;20553;-74
2023/09/26 11:19:29;;;;;;;8.30;3.90;;;24.70;57.30;;;;;;5008630;28;20331;-74
2023/09/26 11:21:54;;;;;;;8.83;4.17;;;25.10;56.10;;;;;;5011781;28;20544;-74
2023/09/26 11:24:27;;;;;;;7.03;4.07;;;25.50;55.80;;;;;;5000757;28;20420;-74
2023/09/26 11:26:57;;;;;;;7.50;3.90;;;25.70;54.60;;;;;;5003936;28;20212;-74
2023/09/26 11:29:23;;;;;;;7.30;3.93;;;25.60;55.00;;;;;;5012731;28;20756;-75
2023/09/26 11:31:52;;;;;;;7.20;3.67;;;25.70;54.10;;;;;;5013795;28;20466;-74
2023/09/26 11:34:19;;;;;;;5.90;4.10;;;25.60;53.60;;;;;;5016213;28;20462;-74
2023/09/26 11:36:47;;;;;;;6.33;4.43;;;25.50;53.80;;;;;;5013876;28;20460;-75
2023/09/26 11:39:23;;;;;;;6.77;4.17;;;25.40;54.50;;;;;;5015893;28;20517;-74
2023/09/26 11:42:10;;;;;;;6.97;3.80;;;25.00;55.40;;;;;;5015622;28;20794;-75
2023/09/26 11:44:36;;;;;;;5.00;3.33;;;24.90;55.00;;;;;;5009223;28;20414;-73
2023/09/26 11:47:03;;;;;;;5.33;3.20;;;25.00;54.90;;;;;;5013159;28;20475;-75
2023/09/26 11:49:30;;;;;;;7.57;3.90;;;25.30;54.80;;;;;;5013309;28;20268;-74
2023/09/26 11:51:56;;;;;;;5.90;3.40;;;25.80;54.40;;;;;;5016781;28;20438;-74
2023/09/26 11:54:22;;;;;;;4.60;2.90;;;26.00;51.70;;;;;;5008178;28;20501;-72
2023/09/26 11:56:48;;;;;;;4.93;3.27;;;25.70;52.60;;;;;;5010872;28;20759;-73
2023/09/26 11:59:14;;;;;;;5.20;2.80;;;25.90;52.60;;;;;;5012471;28;20567;-75
2023/09/26 12:01:43;;;;;;;3.03;2.60;;;25.90;51.80;;;;;;5011080;28;20445;-74
2023/09/26 12:04:13;;;;;;;3.90;2.63;;;25.80;51.60;;;;;;5003185;28;20431;-74
2023/09/26 12:06:40;;;;;;;3.37;2.50;;;25.80;51.30;;;;;;5008689;28;20477;-75
2023/09/26 12:09:19;;;;;;;2.73;2.30;;;25.80;51.20;;;;;;5014357;28;20429;-73
2023/09/26 12:11:48;;;;;;;3.60;2.90;;;25.40;51.30;;;;;;5011960;28;20424;-74
2023/09/26 12:14:15;;;;;;;4.60;2.50;;;25.10;52.40;;;;;;5013434;28;20869;-73
2023/09/26 12:16:42;;;;;;;4.30;2.37;;;25.20;52.80;;;;;;5012298;28;20462;-75
2023/09/26 12:19:08;;;;;;;3.50;2.43;;;25.50;52.20;;;;;;5011617;28;20534;-74
2023/09/26 12:21:34;;;;;;;3.20;2.23;;;25.80;51.00;;;;;;5012611;28;20822;-75
2023/09/26 12:24:00;;;;;;;2.70;2.00;;;26.00;50.90;;;;;;5008863;28;20435;-73
2023/09/26 12:26:25;;;;;;;3.20;2.67;;;26.40;49.90;;;;;;5005491;28;20209;-75
2023/09/26 12:28:51;;;;;;;3.67;2.67;;;26.50;49.50;;;;;;5011558;28;20192;-72
2023/09/26 12:31:16;;;;;;;3.10;2.33;;;26.60;49.00;;;;;;4998969;28;20197;-73
2023/09/26 12:33:43;;;;;;;4.00;2.67;;;26.60;48.90;;;;;;5012760;28;20188;-74
2023/09/26 12:36:09;;;;;;;4.20;2.47;;;26.80;48.90;;;;;;5010239;28;20332;-75